An Lac, Viet Nam

1:21 PM +07 on March 30, 2017 (GMT +0700)
Doi Can Street | | Change Station

Elev 46 ft 21.04 °N, 105.81 °E | Updated 59 minutes ago

Mostly Cloudy
Mostly Cloudy
79.9 °F
Feels Like 84 °F
N
0.4
Wind Variable Wind from SSW
Gusts 1.1 mph

Today
High -- | Low -- °F
--% Chance of Precip.
Yesterday
High -- | Low -- °F
Precip. -- in
Pressure 29.95 in
Visibility 4.3 miles
Clouds Mostly Cloudy 2000 ft
Heat Index 84 °F
Dew Point 73 °F
Humidity 79%
Rainfall 0.01 in
Snow Depth Not available.
5:51 AM 6:09 PM
Waxing Crescent, 6% visible
METAR VVNB 300530Z 17007KT 120V200 7000 BKN020 27/23 Q1014 NOSIG
Pressure 29.95 in
Visibility 4.3 miles
Clouds Mostly Cloudy 2000 ft
Heat Index 84 °F
Dew Point 73 °F
Humidity 79%
Rainfall 0.01 in
Snow Depth Not available.
5:51 AM 6:09 PM
Waxing Crescent, 6% visible
METAR VVNB 300530Z 17007KT 120V200 7000 BKN020 27/23 Q1014 NOSIG

Get Severe Weather Alerts

Thanks for signing up!

Be on the lookout for a verification email in your inbox.

You'll start receiving the daily forecast at 8 AM.

×

10-Day Weather Forecast

No radar image for this location.
×

Almanac

Astronomy

Mar. 30, 2017 Rise Set
Actual Time
Civil Twilight
Nautical Twilight
Astronomical Twilight
Moon
Length of Visible Light
Length of Day
Tomorrow will be .
, % of the Moon is Illuminated

Today's Extremes

Country Highs Country Lows

Community

WunderPhotos

Upload Photos

1,962,540 photos uploaded!

WunderBlog® & News

Nearby

Air Quality

  Air Quality AQ Index Pollutant
Not available.

Snow Depth

Station Depth Elevation

Earthquake Activity

City Distance Mag. Time & Date
Minimum magnitude displayed is 2.5.

Earthquake Activity

City Distance Mag. Time & Date
Minimum magnitude displayed is 2.5.

Coastal Water Temperatures

Place Temperature

Stations

Nearby Weather Stations

Station Location Temp. Windchill Dew Point Humidity Wind Precip. Elev Updated Type